sensor_id;sensor_type;location;lat;lon;timestamp;P1;durP1;ratioP1;P2;durP2;ratioP2
62861;SDS011;48953;53.110;5.592;2023-12-20T00:01:32;21.85;;;3.67;;
62861;SDS011;48953;53.110;5.592;2023-12-20T00:03:57;29.45;;;3.85;;
62861;SDS011;48953;53.110;5.592;2023-12-20T00:06:23;25.45;;;3.38;;
62861;SDS011;48953;53.110;5.592;2023-12-20T00:08:49;19.50;;;3.60;;
62861;SDS011;48953;53.110;5.592;2023-12-20T00:11:15;26.25;;;3.50;;
62861;SDS011;48953;53.110;5.592;2023-12-20T00:13:41;23.05;;;3.25;;
62861;SDS011;48953;53.110;5.592;2023-12-20T00:16:09;25.55;;;3.47;;
62861;SDS011;48953;53.110;5.592;2023-12-20T00:18:35;29.27;;;3.88;;
62861;SDS011;48953;53.110;5.592;2023-12-20T00:21:01;30.55;;;3.75;;
62861;SDS011;48953;53.110;5.592;2023-12-20T00:23:27;19.85;;;3.38;;
62861;SDS011;48953;53.110;5.592;2023-12-20T00:25:53;22.50;;;3.58;;
62861;SDS011;48953;53.110;5.592;2023-12-20T00:28:19;24.33;;;3.92;;
62861;SDS011;48953;53.110;5.592;2023-12-20T00:30:45;28.90;;;3.15;;
62861;SDS011;48953;53.110;5.592;2023-12-20T00:33:11;32.33;;;3.30;;
62861;SDS011;48953;53.110;5.592;2023-12-20T00:35:37;28.90;;;4.10;;
62861;SDS011;48953;53.110;5.592;2023-12-20T00:38:03;21.63;;;3.03;;
62861;SDS011;48953;53.110;5.592;2023-12-20T00:40:31;21.77;;;2.72;;
62861;SDS011;48953;53.110;5.592;2023-12-20T00:42:58;25.25;;;3.30;;
62861;SDS011;48953;53.110;5.592;2023-12-20T00:45:24;24.23;;;3.22;;
62861;SDS011;48953;53.110;5.592;2023-12-20T00:47:50;27.20;;;3.50;;
62861;SDS011;48953;53.110;5.592;2023-12-20T00:50:16;20.90;;;3.90;;
62861;SDS011;48953;53.110;5.592;2023-12-20T00:52:42;29.27;;;3.13;;
62861;SDS011;48953;53.110;5.592;2023-12-20T00:55:08;26.30;;;3.40;;
62861;SDS011;48953;53.110;5.592;2023-12-20T00:57:34;26.75;;;3.42;;
62861;SDS011;48953;53.110;5.592;2023-12-20T01:00:00;22.08;;;3.00;;
62861;SDS011;48953;53.110;5.592;2023-12-20T01:02:27;28.02;;;4.40;;
62861;SDS011;48953;53.110;5.592;2023-12-20T01:04:52;26.65;;;3.60;;
62861;SDS011;48953;53.110;5.592;2023-12-20T01:07:18;33.72;;;4.45;;
62861;SDS011;48953;53.110;5.592;2023-12-20T01:09:44;29.58;;;3.30;;
62861;SDS011;48953;53.110;5.592;2023-12-20T01:12:11;28.00;;;4.15;;
62861;SDS011;48953;53.110;5.592;2023-12-20T01:14:37;28.42;;;3.85;;
62861;SDS011;48953;53.110;5.592;2023-12-20T01:17:04;28.17;;;3.75;;
62861;SDS011;48953;53.110;5.592;2023-12-20T01:19:30;28.38;;;3.20;;
62861;SDS011;48953;53.110;5.592;2023-12-20T01:21:56;23.80;;;3.75;;
62861;SDS011;48953;53.110;5.592;2023-12-20T01:24:22;23.73;;;3.50;;
62861;SDS011;48953;53.110;5.592;2023-12-20T01:26:48;26.88;;;3.17;;
62861;SDS011;48953;53.110;5.592;2023-12-20T01:29:15;30.92;;;3.90;;
62861;SDS011;48953;53.110;5.592;2023-12-20T01:31:41;33.75;;;4.07;;
62861;SDS011;48953;53.110;5.592;2023-12-20T01:34:07;26.95;;;3.65;;
62861;SDS011;48953;53.110;5.592;2023-12-20T01:36:33;32.55;;;3.55;;
62861;SDS011;48953;53.110;5.592;2023-12-20T01:38:59;32.75;;;4.63;;
62861;SDS011;48953;53.110;5.592;2023-12-20T01:41:25;31.42;;;3.90;;
62861;SDS011;48953;53.110;5.592;2023-12-20T01:43:51;28.85;;;4.32;;
62861;SDS011;48953;53.110;5.592;2023-12-20T01:46:18;28.88;;;3.72;;
62861;SDS011;48953;53.110;5.592;2023-12-20T01:48:44;29.08;;;4.18;;
62861;SDS011;48953;53.110;5.592;2023-12-20T01:51:10;27.70;;;3.95;;
62861;SDS011;48953;53.110;5.592;2023-12-20T01:53:36;26.65;;;4.22;;
62861;SDS011;48953;53.110;5.592;2023-12-20T01:56:03;23.13;;;3.78;;
62861;SDS011;48953;53.110;5.592;2023-12-20T01:58:30;37.03;;;4.38;;
62861;SDS011;48953;53.110;5.592;2023-12-20T02:00:56;26.23;;;4.30;;
62861;SDS011;48953;53.110;5.592;2023-12-20T02:03:23;35.15;;;3.90;;
62861;SDS011;48953;53.110;5.592;2023-12-20T02:05:49;34.35;;;3.85;;
62861;SDS011;48953;53.110;5.592;2023-12-20T02:08:15;25.70;;;4.00;;
62861;SDS011;48953;53.110;5.592;2023-12-20T02:10:41;32.33;;;4.28;;
62861;SDS011;48953;53.110;5.592;2023-12-20T02:13:08;30.25;;;3.78;;
62861;SDS011;48953;53.110;5.592;2023-12-20T02:15:34;30.83;;;4.13;;
62861;SDS011;48953;53.110;5.592;2023-12-20T02:18:02;25.45;;;4.03;;
62861;SDS011;48953;53.110;5.592;2023-12-20T02:20:28;29.33;;;4.07;;
62861;SDS011;48953;53.110;5.592;2023-12-20T02:22:54;31.95;;;4.00;;
62861;SDS011;48953;53.110;5.592;2023-12-20T02:25:20;28.17;;;3.85;;
62861;SDS011;48953;53.110;5.592;2023-12-20T02:27:46;32.67;;;4.63;;
62861;SDS011;48953;53.110;5.592;2023-12-20T02:30:13;27.52;;;4.65;;
62861;SDS011;48953;53.110;5.592;2023-12-20T02:32:39;30.80;;;4.07;;
62861;SDS011;48953;53.110;5.592;2023-12-20T02:35:06;27.48;;;4.72;;
62861;SDS011;48953;53.110;5.592;2023-12-20T02:37:32;24.63;;;4.53;;
62861;SDS011;48953;53.110;5.592;2023-12-20T02:39:59;22.88;;;3.78;;
62861;SDS011;48953;53.110;5.592;2023-12-20T02:42:25;28.17;;;3.97;;
62861;SDS011;48953;53.110;5.592;2023-12-20T02:44:51;31.55;;;4.40;;
62861;SDS011;48953;53.110;5.592;2023-12-20T02:47:17;32.80;;;3.88;;
62861;SDS011;48953;53.110;5.592;2023-12-20T02:49:43;28.48;;;4.10;;
62861;SDS011;48953;53.110;5.592;2023-12-20T02:52:09;24.30;;;3.55;;
62861;SDS011;48953;53.110;5.592;2023-12-20T02:54:35;26.58;;;4.75;;
62861;SDS011;48953;53.110;5.592;2023-12-20T02:57:01;28.98;;;4.20;;
62861;SDS011;48953;53.110;5.592;2023-12-20T02:59:27;36.42;;;5.00;;
62861;SDS011;48953;53.110;5.592;2023-12-20T03:01:53;33.10;;;3.72;;
62861;SDS011;48953;53.110;5.592;2023-12-20T03:04:19;24.30;;;3.05;;
62861;SDS011;48953;53.110;5.592;2023-12-20T03:06:45;29.50;;;3.58;;
62861;SDS011;48953;53.110;5.592;2023-12-20T03:09:11;31.92;;;3.65;;
62861;SDS011;48953;53.110;5.592;2023-12-20T03:11:37;25.38;;;3.70;;
62861;SDS011;48953;53.110;5.592;2023-12-20T03:14:03;34.50;;;4.75;;
62861;SDS011;48953;53.110;5.592;2023-12-20T03:16:29;21.48;;;3.42;;
62861;SDS011;48953;53.110;5.592;2023-12-20T03:18:58;25.08;;;4.45;;
62861;SDS011;48953;53.110;5.592;2023-12-20T03:21:24;32.80;;;3.95;;
62861;SDS011;48953;53.110;5.592;2023-12-20T03:23:50;29.30;;;3.83;;
62861;SDS011;48953;53.110;5.592;2023-12-20T03:26:16;29.45;;;4.78;;
62861;SDS011;48953;53.110;5.592;2023-12-20T03:28:43;35.97;;;4.90;;
62861;SDS011;48953;53.110;5.592;2023-12-20T03:31:09;27.58;;;3.67;;
62861;SDS011;48953;53.110;5.592;2023-12-20T03:33:36;31.58;;;4.07;;
62861;SDS011;48953;53.110;5.592;2023-12-20T03:36:02;30.23;;;4.82;;
62861;SDS011;48953;53.110;5.592;2023-12-20T03:38:28;22.02;;;3.40;;
62861;SDS011;48953;53.110;5.592;2023-12-20T03:40:54;28.55;;;3.60;;
62861;SDS011;48953;53.110;5.592;2023-12-20T03:43:20;21.33;;;3.50;;
62861;SDS011;48953;53.110;5.592;2023-12-20T03:45:46;32.22;;;4.18;;
62861;SDS011;48953;53.110;5.592;2023-12-20T03:48:12;23.27;;;3.22;;
62861;SDS011;48953;53.110;5.592;2023-12-20T03:50:38;34.97;;;6.13;;
62861;SDS011;48953;53.110;5.592;2023-12-20T03:53:04;32.78;;;4.45;;
62861;SDS011;48953;53.110;5.592;2023-12-20T03:55:30;30.13;;;3.60;;
62861;SDS011;48953;53.110;5.592;2023-12-20T03:57:56;34.63;;;5.13;;
62861;SDS011;48953;53.110;5.592;2023-12-20T04:00:22;28.80;;;3.78;;
62861;SDS011;48953;53.110;5.592;2023-12-20T04:02:48;23.30;;;4.10;;
62861;SDS011;48953;53.110;5.592;2023-12-20T04:05:14;25.90;;;3.53;;
62861;SDS011;48953;53.110;5.592;2023-12-20T04:07:40;25.58;;;3.72;;
62861;SDS011;48953;53.110;5.592;2023-12-20T04:10:06;26.13;;;5.28;;
62861;SDS011;48953;53.110;5.592;2023-12-20T04:12:33;25.08;;;4.00;;
62861;SDS011;48953;53.110;5.592;2023-12-20T04:14:59;25.17;;;3.70;;
62861;SDS011;48953;53.110;5.592;2023-12-20T04:17:25;28.80;;;4.00;;
62861;SDS011;48953;53.110;5.592;2023-12-20T04:19:51;24.92;;;3.65;;
62861;SDS011;48953;53.110;5.592;2023-12-20T04:22:18;19.17;;;3.30;;
62861;SDS011;48953;53.110;5.592;2023-12-20T04:24:44;24.92;;;3.78;;
62861;SDS011;48953;53.110;5.592;2023-12-20T04:27:10;28.88;;;3.55;;
62861;SDS011;48953;53.110;5.592;2023-12-20T04:29:36;23.55;;;3.88;;
62861;SDS011;48953;53.110;5.592;2023-12-20T04:32:03;25.48;;;4.22;;
62861;SDS011;48953;53.110;5.592;2023-12-20T04:34:29;20.88;;;3.85;;
62861;SDS011;48953;53.110;5.592;2023-12-20T04:36:55;23.17;;;3.50;;
62861;SDS011;48953;53.110;5.592;2023-12-20T04:39:21;23.73;;;3.10;;
62861;SDS011;48953;53.110;5.592;2023-12-20T04:41:47;23.20;;;4.20;;
62861;SDS011;48953;53.110;5.592;2023-12-20T04:44:13;27.85;;;4.72;;
62861;SDS011;48953;53.110;5.592;2023-12-20T04:46:39;24.55;;;4.45;;
62861;SDS011;48953;53.110;5.592;2023-12-20T04:49:05;19.45;;;3.45;;
62861;SDS011;48953;53.110;5.592;2023-12-20T04:51:34;23.13;;;3.42;;
62861;SDS011;48953;53.110;5.592;2023-12-20T04:54:01;24.98;;;3.90;;
62861;SDS011;48953;53.110;5.592;2023-12-20T04:56:27;27.83;;;3.92;;
62861;SDS011;48953;53.110;5.592;2023-12-20T04:58:53;29.98;;;3.80;;
62861;SDS011;48953;53.110;5.592;2023-12-20T05:01:19;21.38;;;3.15;;
62861;SDS011;48953;53.110;5.592;2023-12-20T05:03:46;38.28;;;4.97;;
62861;SDS011;48953;53.110;5.592;2023-12-20T05:06:12;20.77;;;3.53;;
62861;SDS011;48953;53.110;5.592;2023-12-20T05:08:38;29.77;;;4.88;;
62861;SDS011;48953;53.110;5.592;2023-12-20T05:11:04;28.25;;;3.95;;
62861;SDS011;48953;53.110;5.592;2023-12-20T05:13:30;24.73;;;3.38;;
62861;SDS011;48953;53.110;5.592;2023-12-20T05:15:56;29.02;;;3.60;;
62861;SDS011;48953;53.110;5.592;2023-12-20T05:18:22;24.98;;;3.83;;
62861;SDS011;48953;53.110;5.592;2023-12-20T05:20:49;24.73;;;4.00;;
62861;SDS011;48953;53.110;5.592;2023-12-20T05:23:15;22.70;;;3.17;;
62861;SDS011;48953;53.110;5.592;2023-12-20T05:25:42;24.25;;;4.00;;
62861;SDS011;48953;53.110;5.592;2023-12-20T05:28:08;22.88;;;3.58;;
62861;SDS011;48953;53.110;5.592;2023-12-20T05:30:34;24.40;;;3.97;;
62861;SDS011;48953;53.110;5.592;2023-12-20T05:33:00;23.20;;;3.38;;
62861;SDS011;48953;53.110;5.592;2023-12-20T05:35:26;25.08;;;3.60;;
62861;SDS011;48953;53.110;5.592;2023-12-20T05:37:52;22.83;;;4.53;;
62861;SDS011;48953;53.110;5.592;2023-12-20T05:40:18;22.00;;;3.13;;
62861;SDS011;48953;53.110;5.592;2023-12-20T05:42:44;22.83;;;3.25;;
62861;SDS011;48953;53.110;5.592;2023-12-20T05:45:10;21.95;;;3.15;;
62861;SDS011;48953;53.110;5.592;2023-12-20T05:47:36;20.80;;;3.95;;
62861;SDS011;48953;53.110;5.592;2023-12-20T05:50:02;19.08;;;2.65;;
62861;SDS011;48953;53.110;5.592;2023-12-20T05:52:29;24.30;;;4.25;;
62861;SDS011;48953;53.110;5.592;2023-12-20T05:54:55;26.95;;;3.85;;
62861;SDS011;48953;53.110;5.592;2023-12-20T05:57:22;23.05;;;3.17;;
62861;SDS011;48953;53.110;5.592;2023-12-20T05:59:48;12.52;;;2.50;;
62861;SDS011;48953;53.110;5.592;2023-12-20T06:02:14;23.27;;;3.53;;
62861;SDS011;48953;53.110;5.592;2023-12-20T06:04:44;16.27;;;3.38;;
62861;SDS011;48953;53.110;5.592;2023-12-20T06:07:13;24.15;;;4.90;;
62861;SDS011;48953;53.110;5.592;2023-12-20T06:09:39;23.13;;;3.75;;
62861;SDS011;48953;53.110;5.592;2023-12-20T06:12:06;22.58;;;3.50;;
62861;SDS011;48953;53.110;5.592;2023-12-20T06:14:33;21.60;;;3.35;;
62861;SDS011;48953;53.110;5.592;2023-12-20T06:16:59;21.35;;;3.60;;
62861;SDS011;48953;53.110;5.592;2023-12-20T06:19:26;19.98;;;3.45;;
62861;SDS011;48953;53.110;5.592;2023-12-20T06:21:52;23.17;;;4.28;;
62861;SDS011;48953;53.110;5.592;2023-12-20T06:24:19;24.63;;;4.03;;
62861;SDS011;48953;53.110;5.592;2023-12-20T06:26:45;21.88;;;3.45;;
62861;SDS011;48953;53.110;5.592;2023-12-20T06:29:11;20.15;;;3.80;;
62861;SDS011;48953;53.110;5.592;2023-12-20T06:31:37;23.85;;;3.30;;
62861;SDS011;48953;53.110;5.592;2023-12-20T06:34:03;21.45;;;3.53;;
62861;SDS011;48953;53.110;5.592;2023-12-20T06:36:29;21.55;;;3.58;;
62861;SDS011;48953;53.110;5.592;2023-12-20T06:38:55;16.50;;;3.33;;
62861;SDS011;48953;53.110;5.592;2023-12-20T06:41:22;21.50;;;3.25;;
62861;SDS011;48953;53.110;5.592;2023-12-20T06:43:49;22.52;;;3.55;;
62861;SDS011;48953;53.110;5.592;2023-12-20T06:46:16;20.33;;;3.45;;
62861;SDS011;48953;53.110;5.592;2023-12-20T06:48:42;24.58;;;3.42;;
62861;SDS011;48953;53.110;5.592;2023-12-20T06:51:10;20.42;;;3.97;;
62861;SDS011;48953;53.110;5.592;2023-12-20T06:53:36;21.83;;;3.15;;
62861;SDS011;48953;53.110;5.592;2023-12-20T06:56:02;22.83;;;3.53;;
62861;SDS011;48953;53.110;5.592;2023-12-20T06:58:29;19.67;;;3.72;;
62861;SDS011;48953;53.110;5.592;2023-12-20T07:00:55;22.98;;;4.00;;
62861;SDS011;48953;53.110;5.592;2023-12-20T07:03:21;18.13;;;3.47;;
62861;SDS011;48953;53.110;5.592;2023-12-20T07:05:47;23.65;;;4.20;;
62861;SDS011;48953;53.110;5.592;2023-12-20T07:08:13;21.15;;;2.97;;
62861;SDS011;48953;53.110;5.592;2023-12-20T07:10:40;17.17;;;3.00;;
62861;SDS011;48953;53.110;5.592;2023-12-20T07:13:06;26.05;;;3.85;;
62861;SDS011;48953;53.110;5.592;2023-12-20T07:15:33;18.40;;;3.80;;
62861;SDS011;48953;53.110;5.592;2023-12-20T07:17:59;19.63;;;3.30;;
62861;SDS011;48953;53.110;5.592;2023-12-20T07:20:25;23.25;;;3.28;;
62861;SDS011;48953;53.110;5.592;2023-12-20T07:22:51;21.30;;;4.18;;
62861;SDS011;48953;53.110;5.592;2023-12-20T07:25:17;19.30;;;3.38;;
62861;SDS011;48953;53.110;5.592;2023-12-20T07:27:45;21.23;;;3.50;;
62861;SDS011;48953;53.110;5.592;2023-12-20T07:30:11;19.10;;;3.47;;
62861;SDS011;48953;53.110;5.592;2023-12-20T07:32:37;20.60;;;3.75;;
62861;SDS011;48953;53.110;5.592;2023-12-20T07:35:03;21.45;;;3.60;;
62861;SDS011;48953;53.110;5.592;2023-12-20T07:37:30;24.30;;;4.25;;
62861;SDS011;48953;53.110;5.592;2023-12-20T07:39:56;24.92;;;4.80;;
62861;SDS011;48953;53.110;5.592;2023-12-20T07:42:22;17.92;;;3.08;;
62861;SDS011;48953;53.110;5.592;2023-12-20T07:44:48;18.65;;;3.30;;
62861;SDS011;48953;53.110;5.592;2023-12-20T07:47:14;24.15;;;3.60;;
62861;SDS011;48953;53.110;5.592;2023-12-20T07:49:43;21.65;;;4.20;;
62861;SDS011;48953;53.110;5.592;2023-12-20T07:52:09;24.30;;;3.97;;
62861;SDS011;48953;53.110;5.592;2023-12-20T07:54:35;25.00;;;3.50;;
62861;SDS011;48953;53.110;5.592;2023-12-20T07:57:01;21.98;;;4.43;;
62861;SDS011;48953;53.110;5.592;2023-12-20T07:59:27;18.90;;;3.38;;
62861;SDS011;48953;53.110;5.592;2023-12-20T08:01:53;29.40;;;3.88;;
62861;SDS011;48953;53.110;5.592;2023-12-20T08:04:19;18.33;;;2.92;;
62861;SDS011;48953;53.110;5.592;2023-12-20T08:06:45;22.88;;;4.00;;
62861;SDS011;48953;53.110;5.592;2023-12-20T08:09:11;21.75;;;3.60;;
62861;SDS011;48953;53.110;5.592;2023-12-20T08:11:37;17.85;;;3.70;;
62861;SDS011;48953;53.110;5.592;2023-12-20T08:14:03;18.85;;;3.38;;
62861;SDS011;48953;53.110;5.592;2023-12-20T08:16:29;23.33;;;3.35;;
62861;SDS011;48953;53.110;5.592;2023-12-20T08:18:55;22.13;;;3.17;;
62861;SDS011;48953;53.110;5.592;2023-12-20T08:21:21;19.65;;;3.30;;
62861;SDS011;48953;53.110;5.592;2023-12-20T08:23:47;23.00;;;2.83;;
62861;SDS011;48953;53.110;5.592;2023-12-20T08:26:14;19.40;;;2.65;;
62861;SDS011;48953;53.110;5.592;2023-12-20T08:28:45;19.38;;;3.45;;
62861;SDS011;48953;53.110;5.592;2023-12-20T08:31:15;18.42;;;3.40;;
62861;SDS011;48953;53.110;5.592;2023-12-20T08:33:41;21.02;;;3.60;;
62861;SDS011;48953;53.110;5.592;2023-12-20T08:36:07;17.83;;;3.35;;
62861;SDS011;48953;53.110;5.592;2023-12-20T08:38:33;15.13;;;3.00;;
62861;SDS011;48953;53.110;5.592;2023-12-20T08:40:59;17.92;;;3.35;;
62861;SDS011;48953;53.110;5.592;2023-12-20T08:43:26;23.95;;;4.30;;
62861;SDS011;48953;53.110;5.592;2023-12-20T08:45:52;19.90;;;3.92;;
62861;SDS011;48953;53.110;5.592;2023-12-20T08:48:18;18.67;;;3.75;;
62861;SDS011;48953;53.110;5.592;2023-12-20T08:50:44;18.92;;;3.35;;
62861;SDS011;48953;53.110;5.592;2023-12-20T08:53:12;29.55;;;4.18;;
62861;SDS011;48953;53.110;5.592;2023-12-20T08:55:38;25.95;;;4.85;;
62861;SDS011;48953;53.110;5.592;2023-12-20T08:58:04;16.00;;;3.33;;
62861;SDS011;48953;53.110;5.592;2023-12-20T09:00:31;18.13;;;3.50;;
62861;SDS011;48953;53.110;5.592;2023-12-20T09:02:57;30.05;;;5.05;;
62861;SDS011;48953;53.110;5.592;2023-12-20T09:05:24;24.92;;;4.47;;
62861;SDS011;48953;53.110;5.592;2023-12-20T09:07:50;16.05;;;2.92;;
62861;SDS011;48953;53.110;5.592;2023-12-20T09:10:16;7.90;;;1.52;;
62861;SDS011;48953;53.110;5.592;2023-12-20T09:12:47;7.65;;;1.10;;
62861;SDS011;48953;53.110;5.592;2023-12-20T09:15:13;9.07;;;1.45;;
62861;SDS011;48953;53.110;5.592;2023-12-20T09:17:40;9.23;;;1.23;;
62861;SDS011;48953;53.110;5.592;2023-12-20T09:20:07;7.80;;;1.30;;
62861;SDS011;48953;53.110;5.592;2023-12-20T09:22:33;6.82;;;0.90;;
62861;SDS011;48953;53.110;5.592;2023-12-20T09:24:59;9.52;;;1.88;;
62861;SDS011;48953;53.110;5.592;2023-12-20T09:27:27;7.05;;;1.08;;
62861;SDS011;48953;53.110;5.592;2023-12-20T09:29:53;16.90;;;1.42;;
62861;SDS011;48953;53.110;5.592;2023-12-20T09:32:19;11.85;;;1.67;;
62861;SDS011;48953;53.110;5.592;2023-12-20T09:34:48;17.27;;;1.67;;
62861;SDS011;48953;53.110;5.592;2023-12-20T09:37:14;16.35;;;2.72;;
62861;SDS011;48953;53.110;5.592;2023-12-20T09:39:40;10.35;;;1.52;;
62861;SDS011;48953;53.110;5.592;2023-12-20T09:42:06;11.13;;;1.35;;
62861;SDS011;48953;53.110;5.592;2023-12-20T09:44:33;10.77;;;1.77;;
62861;SDS011;48953;53.110;5.592;2023-12-20T09:47:03;6.28;;;1.25;;
62861;SDS011;48953;53.110;5.592;2023-12-20T09:49:29;10.30;;;1.98;;
62861;SDS011;48953;53.110;5.592;2023-12-20T09:51:56;8.35;;;1.08;;
62861;SDS011;48953;53.110;5.592;2023-12-20T09:54:22;12.55;;;1.40;;
62861;SDS011;48953;53.110;5.592;2023-12-20T09:56:49;9.65;;;1.38;;
62861;SDS011;48953;53.110;5.592;2023-12-20T09:59:15;7.03;;;1.20;;
62861;SDS011;48953;53.110;5.592;2023-12-20T10:01:41;10.38;;;1.27;;
62861;SDS011;48953;53.110;5.592;2023-12-20T10:04:08;14.75;;;1.33;;
62861;SDS011;48953;53.110;5.592;2023-12-20T10:06:37;11.73;;;1.42;;
62861;SDS011;48953;53.110;5.592;2023-12-20T10:09:03;10.35;;;1.38;;
62861;SDS011;48953;53.110;5.592;2023-12-20T10:11:29;13.48;;;1.60;;
62861;SDS011;48953;53.110;5.592;2023-12-20T10:13:59;12.88;;;2.20;;
62861;SDS011;48953;53.110;5.592;2023-12-20T10:16:28;13.07;;;1.83;;
62861;SDS011;48953;53.110;5.592;2023-12-20T10:18:55;11.80;;;1.98;;
62861;SDS011;48953;53.110;5.592;2023-12-20T10:21:24;17.58;;;1.67;;
62861;SDS011;48953;53.110;5.592;2023-12-20T10:23:54;14.65;;;1.75;;
62861;SDS011;48953;53.110;5.592;2023-12-20T10:26:24;8.05;;;1.35;;
62861;SDS011;48953;53.110;5.592;2023-12-20T10:28:54;12.57;;;1.92;;
62861;SDS011;48953;53.110;5.592;2023-12-20T10:33:53;11.88;;;1.83;;
62861;SDS011;48953;53.110;5.592;2023-12-20T10:36:19;17.25;;;1.85;;
62861;SDS011;48953;53.110;5.592;2023-12-20T10:38:46;10.02;;;1.60;;
62861;SDS011;48953;53.110;5.592;2023-12-20T10:41:14;10.63;;;1.38;;
62861;SDS011;48953;53.110;5.592;2023-12-20T10:43:42;13.77;;;1.95;;
62861;SDS011;48953;53.110;5.592;2023-12-20T10:46:08;7.68;;;1.40;;
62861;SDS011;48953;53.110;5.592;2023-12-20T10:48:34;10.32;;;1.80;;
62861;SDS011;48953;53.110;5.592;2023-12-20T10:51:00;14.23;;;2.40;;
62861;SDS011;48953;53.110;5.592;2023-12-20T10:53:27;10.02;;;1.45;;
62861;SDS011;48953;53.110;5.592;2023-12-20T10:55:54;10.70;;;2.00;;
62861;SDS011;48953;53.110;5.592;2023-12-20T10:58:24;15.35;;;1.90;;
62861;SDS011;48953;53.110;5.592;2023-12-20T11:00:52;13.23;;;1.77;;
62861;SDS011;48953;53.110;5.592;2023-12-20T11:03:22;14.35;;;3.38;;
62861;SDS011;48953;53.110;5.592;2023-12-20T11:05:54;13.38;;;3.47;;
62861;SDS011;48953;53.110;5.592;2023-12-20T11:08:28;20.63;;;6.72;;
62861;SDS011;48953;53.110;5.592;2023-12-20T11:11:06;18.95;;;4.93;;
62861;SDS011;48953;53.110;5.592;2023-12-20T11:13:40;16.45;;;3.72;;
62861;SDS011;48953;53.110;5.592;2023-12-20T11:16:06;23.25;;;3.85;;
62861;SDS011;48953;53.110;5.592;2023-12-20T11:18:33;17.30;;;3.67;;
62861;SDS011;48953;53.110;5.592;2023-12-20T11:21:02;18.38;;;3.42;;
62861;SDS011;48953;53.110;5.592;2023-12-20T11:23:30;12.82;;;2.47;;
62861;SDS011;48953;53.110;5.592;2023-12-20T11:25:59;14.85;;;2.75;;
62861;SDS011;48953;53.110;5.592;2023-12-20T11:28:25;8.70;;;1.70;;
62861;SDS011;48953;53.110;5.592;2023-12-20T11:30:55;13.68;;;2.45;;
62861;SDS011;48953;53.110;5.592;2023-12-20T11:33:45;17.50;;;2.60;;
62861;SDS011;48953;53.110;5.592;2023-12-20T11:36:18;11.77;;;1.58;;
62861;SDS011;48953;53.110;5.592;2023-12-20T11:38:49;15.65;;;1.75;;
62861;SDS011;48953;53.110;5.592;2023-12-20T11:41:21;12.68;;;2.28;;
62861;SDS011;48953;53.110;5.592;2023-12-20T11:43:48;14.30;;;2.05;;
62861;SDS011;48953;53.110;5.592;2023-12-20T11:46:17;10.27;;;1.85;;
62861;SDS011;48953;53.110;5.592;2023-12-20T11:48:43;13.73;;;2.50;;
62861;SDS011;48953;53.110;5.592;2023-12-20T11:51:10;16.75;;;1.90;;
62861;SDS011;48953;53.110;5.592;2023-12-20T11:53:37;9.52;;;1.52;;
62861;SDS011;48953;53.110;5.592;2023-12-20T11:56:03;11.57;;;1.40;;
62861;SDS011;48953;53.110;5.592;2023-12-20T11:58:29;10.30;;;1.40;;
62861;SDS011;48953;53.110;5.592;2023-12-20T12:00:56;10.07;;;1.48;;
62861;SDS011;48953;53.110;5.592;2023-12-20T12:03:22;7.53;;;1.80;;
62861;SDS011;48953;53.110;5.592;2023-12-20T12:05:49;6.40;;;1.70;;
62861;SDS011;48953;53.110;5.592;2023-12-20T12:08:15;8.98;;;1.25;;
62861;SDS011;48953;53.110;5.592;2023-12-20T12:10:42;7.28;;;1.35;;
62861;SDS011;48953;53.110;5.592;2023-12-20T12:13:08;10.18;;;1.23;;
62861;SDS011;48953;53.110;5.592;2023-12-20T12:15:35;10.55;;;1.45;;
62861;SDS011;48953;53.110;5.592;2023-12-20T12:18:01;8.65;;;1.00;;
62861;SDS011;48953;53.110;5.592;2023-12-20T12:20:28;11.32;;;1.15;;
62861;SDS011;48953;53.110;5.592;2023-12-20T12:23:13;7.80;;;0.98;;
62861;SDS011;48953;53.110;5.592;2023-12-20T12:25:39;5.93;;;1.00;;
62861;SDS011;48953;53.110;5.592;2023-12-20T12:28:05;11.38;;;2.03;;
62861;SDS011;48953;53.110;5.592;2023-12-20T12:30:32;11.93;;;1.35;;
62861;SDS011;48953;53.110;5.592;2023-12-20T12:32:58;7.40;;;0.80;;
62861;SDS011;48953;53.110;5.592;2023-12-20T12:35:24;7.30;;;0.95;;
62861;SDS011;48953;53.110;5.592;2023-12-20T12:37:50;9.43;;;1.45;;
62861;SDS011;48953;53.110;5.592;2023-12-20T12:40:17;6.97;;;0.85;;
62861;SDS011;48953;53.110;5.592;2023-12-20T12:42:43;9.38;;;1.30;;
62861;SDS011;48953;53.110;5.592;2023-12-20T12:45:10;6.60;;;1.20;;
62861;SDS011;48953;53.110;5.592;2023-12-20T12:47:37;11.00;;;1.30;;
62861;SDS011;48953;53.110;5.592;2023-12-20T12:50:03;7.65;;;1.20;;
62861;SDS011;48953;53.110;5.592;2023-12-20T12:52:30;9.18;;;0.93;;
62861;SDS011;48953;53.110;5.592;2023-12-20T12:54:56;8.68;;;1.10;;
62861;SDS011;48953;53.110;5.592;2023-12-20T12:57:22;9.85;;;1.40;;
62861;SDS011;48953;53.110;5.592;2023-12-20T12:59:49;6.50;;;0.82;;
62861;SDS011;48953;53.110;5.592;2023-12-20T13:02:15;11.75;;;1.10;;
62861;SDS011;48953;53.110;5.592;2023-12-20T13:04:41;8.57;;;1.02;;
62861;SDS011;48953;53.110;5.592;2023-12-20T13:07:08;17.10;;;2.00;;
62861;SDS011;48953;53.110;5.592;2023-12-20T13:09:36;14.38;;;1.58;;
62861;SDS011;48953;53.110;5.592;2023-12-20T13:12:02;9.02;;;1.90;;
62861;SDS011;48953;53.110;5.592;2023-12-20T13:14:30;11.32;;;1.08;;
62861;SDS011;48953;53.110;5.592;2023-12-20T13:16:57;10.38;;;1.65;;
62861;SDS011;48953;53.110;5.592;2023-12-20T13:19:23;10.07;;;1.30;;
62861;SDS011;48953;53.110;5.592;2023-12-20T13:21:49;15.43;;;2.00;;
62861;SDS011;48953;53.110;5.592;2023-12-20T13:24:15;15.18;;;3.33;;
62861;SDS011;48953;53.110;5.592;2023-12-20T13:26:41;12.63;;;2.47;;
62861;SDS011;48953;53.110;5.592;2023-12-20T13:29:07;8.52;;;1.20;;
62861;SDS011;48953;53.110;5.592;2023-12-20T13:31:33;7.13;;;1.10;;
62861;SDS011;48953;53.110;5.592;2023-12-20T13:34:01;8.70;;;1.00;;
62861;SDS011;48953;53.110;5.592;2023-12-20T13:36:27;10.05;;;1.10;;
62861;SDS011;48953;53.110;5.592;2023-12-20T13:38:53;5.28;;;1.52;;
62861;SDS011;48953;53.110;5.592;2023-12-20T13:41:19;11.68;;;1.27;;
62861;SDS011;48953;53.110;5.592;2023-12-20T13:43:45;11.60;;;1.05;;
62861;SDS011;48953;53.110;5.592;2023-12-20T13:46:11;10.75;;;1.20;;
62861;SDS011;48953;53.110;5.592;2023-12-20T13:48:39;11.57;;;1.80;;
62861;SDS011;48953;53.110;5.592;2023-12-20T13:51:05;11.57;;;1.10;;
62861;SDS011;48953;53.110;5.592;2023-12-20T13:53:31;10.05;;;1.15;;
62861;SDS011;48953;53.110;5.592;2023-12-20T13:55:57;13.85;;;1.20;;
62861;SDS011;48953;53.110;5.592;2023-12-20T13:58:24;12.45;;;1.50;;
62861;SDS011;48953;53.110;5.592;2023-12-20T14:00:50;10.57;;;1.20;;
62861;SDS011;48953;53.110;5.592;2023-12-20T14:03:16;13.85;;;1.83;;
62861;SDS011;48953;53.110;5.592;2023-12-20T14:05:44;18.13;;;2.42;;
62861;SDS011;48953;53.110;5.592;2023-12-20T14:08:10;20.48;;;3.05;;
62861;SDS011;48953;53.110;5.592;2023-12-20T14:10:36;22.30;;;3.45;;
62861;SDS011;48953;53.110;5.592;2023-12-20T14:13:03;24.35;;;3.78;;
62861;SDS011;48953;53.110;5.592;2023-12-20T14:15:30;21.65;;;2.75;;
62861;SDS011;48953;53.110;5.592;2023-12-20T14:18:02;25.10;;;3.17;;
62861;SDS011;48953;53.110;5.592;2023-12-20T14:20:28;18.92;;;2.97;;
62861;SDS011;48953;53.110;5.592;2023-12-20T14:22:54;20.38;;;3.20;;
62861;SDS011;48953;53.110;5.592;2023-12-20T14:25:20;20.13;;;3.78;;
62861;SDS011;48953;53.110;5.592;2023-12-20T14:27:48;17.90;;;2.53;;
62861;SDS011;48953;53.110;5.592;2023-12-20T14:30:14;26.40;;;2.63;;
62861;SDS011;48953;53.110;5.592;2023-12-20T14:32:41;17.15;;;2.30;;
62861;SDS011;48953;53.110;5.592;2023-12-20T14:35:07;24.52;;;3.28;;